Los Angeles, CA (90002)

4:54 AM PST on December 07, 2016 (GMT -0800)
Victoria Ave Elementary | | Change Station

Elev 125 ft 33.95 °N, 118.21 °W | Updated 1 second ago

Overcast
Overcast
51.4 °F
Feels Like 51.4 °F
N
0.0
Wind Variable Wind from North
Gusts 1.0 mph

Today
High -- | Low -- °F
--% Chance of Precip.
Yesterday
High -- | Low -- °F
Precip. -- in
Pressure 30.03 in
Visibility 9.0 miles
Clouds Few 2000 ft
Overcast 3000 ft
Dew Point 49 °F
Humidity 90%
Rainfall 0.00 in
Snow Depth Not available.
6:45 AM 4:43 PM
First Quarter, 52% visible
METAR KHHR 071153Z AUTO 00000KT 9SM FEW020 OVC030 11/09 A3003 RMK AO2 SLP169 T01110094 10133 20111 50004
Pressure 30.03 in
Visibility 9.0 miles
Clouds Few 2000 ft
Overcast 3000 ft
Dew Point 49 °F
Humidity 90%
Rainfall 0.00 in
Snow Depth Not available.
6:45 AM 4:43 PM
First Quarter, 52% visible
METAR KHHR 071153Z AUTO 00000KT 9SM FEW020 OVC030 11/09 A3003 RMK AO2 SLP169 T01110094 10133 20111 50004

10-Day Weather Forecast

Almanac

Astronomy

Dec. 07, 2016 Rise Set
Actual Time
Civil Twilight
Nautical Twilight
Astronomical Twilight
Moon
Length of Visible Light
Length of Day
Tomorrow will be .
, % of the Moon is Illuminated

Today's Extremes

State Highs State Lows

Community

WunderPhotos

Upload Photos

1,956,112 photos uploaded!

WunderBlog® & News

Nearby

Air Quality

  Air Quality AQ Index Pollutant
Not available.

Snow Depth

Station Depth Elevation

Earthquake Activity

City Distance Mag. Time & Date
Minimum magnitude displayed is 2.5.

Coastal Water Temperatures

Place Temperature

Stations

Nearby Weather Stations

Station Location Temp. Windchill Dew Point Humidity Wind Precip. Elev Updated Type
                   

Watches & Warnings

There are currently no watches in effect.